createdAt,value
2019-05-29T10:24:11.101Z,33
2019-05-29T10:25:14.421Z,33
2019-05-29T10:26:16.697Z,32
2019-05-29T10:27:19.183Z,33
2019-05-29T10:28:21.705Z,31
2019-05-29T10:29:23.907Z,31
2019-05-29T10:30:26.210Z,33
2019-05-29T10:31:29.336Z,33
2019-05-29T10:32:31.915Z,34
2019-05-29T10:33:34.216Z,33
2019-05-29T10:34:36.815Z,34
2019-05-29T10:35:39.569Z,34
2019-05-29T10:36:54.925Z,36
2019-05-29T10:37:57.345Z,33
2019-05-29T10:39:00.305Z,35
2019-05-29T10:40:02.936Z,35
2019-05-29T10:41:08.291Z,33
2019-05-29T10:42:10.469Z,33
2019-05-29T10:43:12.745Z,30
2019-05-29T10:44:14.940Z,31
2019-05-29T10:45:17.186Z,30
2019-05-29T10:46:19.476Z,30
2019-05-29T10:47:21.941Z,30
2019-05-29T10:48:24.850Z,30
2019-05-29T10:49:28.494Z,29
2019-05-29T10:50:31.070Z,29
2019-05-29T10:51:33.283Z,32
2019-05-29T10:52:35.538Z,31
2019-05-29T10:53:37.730Z,31
2019-05-29T10:54:40.589Z,31
2019-05-29T10:55:44.142Z,31
2019-05-29T10:56:52.469Z,31
2019-05-29T10:57:56.145Z,33
2019-05-29T10:59:01.128Z,33
2019-05-29T11:00:03.680Z,31
2019-05-29T11:01:05.884Z,33
2019-05-29T11:02:08.839Z,31
2019-05-29T11:03:11.117Z,33
2019-05-29T11:04:13.395Z,31
2019-05-29T11:05:15.677Z,31
2019-05-29T11:06:19.072Z,31
2019-05-29T11:07:24.137Z,31
2019-05-29T11:08:26.574Z,30
2019-05-29T11:09:50.084Z,29
2019-05-29T11:10:54.100Z,29
2019-05-29T11:11:58.927Z,31
2019-05-29T11:13:02.143Z,30
2019-05-29T11:14:05.391Z,29
2019-05-29T11:15:23.233Z,28
2019-05-29T11:16:26.432Z,31
2019-05-29T11:17:29.452Z,31
2019-05-29T11:18:32.080Z,30
2019-05-29T11:19:34.598Z,31
2019-05-29T11:20:37.970Z,30
2019-05-29T11:21:40.919Z,31
2019-05-29T11:22:43.205Z,32
2019-05-29T11:23:45.415Z,31
2019-05-29T11:24:50.445Z,32
2019-05-29T11:25:56.213Z,32
2019-05-29T11:27:00.482Z,30
2019-05-29T11:28:02.665Z,32
2019-05-29T11:29:04.827Z,32
2019-05-29T11:30:07.195Z,32
2019-05-29T11:31:10.187Z,31
2019-05-29T11:32:12.820Z,31
2019-05-29T11:33:16.041Z,31
2019-05-29T11:34:18.610Z,31
2019-05-29T11:35:21.186Z,29
2019-05-29T11:36:23.679Z,30
2019-05-29T11:37:25.914Z,28
2019-05-29T11:38:28.120Z,28
2019-05-29T11:39:30.750Z,29
2019-05-29T11:40:34.692Z,30
2019-05-29T11:41:38.441Z,29
2019-05-29T11:42:40.883Z,29
2019-05-29T11:43:43.111Z,28
2019-05-29T11:44:45.294Z,29
2019-05-29T11:45:47.504Z,30
2019-05-29T11:46:55.825Z,31
2019-05-29T11:48:06.530Z,31
2019-05-29T11:49:08.887Z,30
2019-05-29T11:50:21.151Z,30
2019-05-29T11:51:23.712Z,30
2019-05-29T11:52:44.701Z,29
2019-05-29T11:53:46.854Z,32
2019-05-29T11:54:56.422Z,33
2019-05-29T11:56:09.927Z,32
2019-05-29T11:57:13.301Z,31
2019-05-29T11:58:32.577Z,30
2019-05-29T11:59:34.728Z,30
2019-05-29T12:00:36.927Z,31
2019-05-29T12:01:59.235Z,31
2019-05-29T12:03:05.826Z,30
2019-05-29T12:04:28.077Z,31
2019-05-29T12:05:30.227Z,30
2019-05-29T12:06:32.484Z,30
2019-05-29T12:07:34.806Z,31
2019-05-29T12:08:37.488Z,32
2019-05-29T12:09:40.875Z,33
2019-05-29T12:10:43.163Z,32
2019-05-29T12:11:45.371Z,31
2019-05-29T12:12:47.646Z,31
2019-05-29T12:13:52.028Z,30
2019-05-29T12:15:19.503Z,31
2019-05-29T12:16:21.660Z,32
2019-05-29T12:17:23.882Z,31
2019-05-29T12:18:26.700Z,30
2019-05-29T12:19:29.225Z,29
2019-05-29T12:20:32.213Z,31
2019-05-29T12:21:34.352Z,31
2019-05-29T12:22:37.449Z,30
2019-05-29T12:23:40.241Z,32
2019-05-29T12:24:42.885Z,31
2019-05-29T12:25:45.665Z,33
2019-05-29T12:26:48.514Z,34
2019-05-29T12:27:50.750Z,33
2019-05-29T12:29:13.041Z,32
2019-05-29T12:30:15.183Z,34
2019-05-29T12:31:18.353Z,35
2019-05-29T12:32:20.635Z,34
2019-05-29T12:33:22.802Z,32
2019-05-29T12:34:25.207Z,33
2019-05-29T12:35:27.432Z,29
2019-05-29T12:36:29.613Z,29
2019-05-29T12:37:32.610Z,29
2019-05-29T12:38:34.790Z,29
2019-05-29T12:39:37.340Z,32
2019-05-29T12:40:40.213Z,32
2019-05-29T12:41:42.374Z,31
2019-05-29T12:42:46.793Z,31
2019-05-29T12:43:48.979Z,29
2019-05-29T12:44:51.664Z,29
2019-05-29T12:46:00.068Z,30
2019-05-29T12:47:05.533Z,30
2019-05-29T12:48:18.347Z,29
2019-05-29T12:49:20.819Z,29
2019-05-29T12:50:23.389Z,31
2019-05-29T12:51:26.258Z,29
2019-05-29T12:52:28.797Z,31
2019-05-29T12:53:32.618Z,31
2019-05-29T12:54:34.895Z,32
2019-05-29T12:55:37.110Z,30
2019-05-29T12:56:39.386Z,31
2019-05-29T12:57:42.174Z,29
2019-05-29T12:58:45.154Z,29
2019-05-29T12:59:47.391Z,29
2019-05-29T13:00:51.114Z,30
2019-05-29T13:01:58.688Z,28
2019-05-29T13:03:06.261Z,29
2019-05-29T13:04:08.488Z,28
2019-05-29T13:05:22.027Z,28
2019-05-29T13:06:24.513Z,28
2019-05-29T13:07:27.131Z,30
2019-05-29T13:08:29.668Z,30
2019-05-29T13:09:32.214Z,33
2019-05-29T13:10:34.459Z,33
2019-05-29T13:11:37.332Z,32
2019-05-29T13:12:39.573Z,33
2019-05-29T13:13:41.759Z,32
2019-05-29T13:14:44.326Z,32
2019-05-29T13:15:46.636Z,31
2019-05-29T13:16:49.218Z,31
2019-05-29T13:18:10.641Z,32
2019-05-29T13:19:20.494Z,33
2019-05-29T13:20:25.246Z,33
2019-05-29T13:21:27.460Z,34
2019-05-29T13:22:29.667Z,33
2019-05-29T13:23:46.878Z,33
2019-05-29T13:24:52.030Z,33
2019-05-29T13:25:57.239Z,33
2019-05-29T13:27:03.630Z,34
2019-05-29T13:28:07.762Z,34
2019-05-29T13:29:10.637Z,32
2019-05-29T13:30:13.164Z,32
2019-05-29T13:31:15.437Z,34
2019-05-29T13:32:18.051Z,33
2019-05-29T13:33:20.528Z,34
2019-05-29T13:34:23.364Z,33
2019-05-29T13:35:26.954Z,34
2019-05-29T13:36:29.811Z,32
2019-05-29T13:37:32.042Z,31
2019-05-29T13:38:36.638Z,31
2019-05-29T13:39:39.887Z,31
2019-05-29T13:40:42.190Z,32
2019-05-29T13:41:44.792Z,30
2019-05-29T13:42:47.024Z,31
2019-05-29T13:43:49.843Z,31
2019-05-29T13:44:58.927Z,30
2019-05-29T13:46:20.432Z,29
2019-05-29T13:47:23.412Z,30
2019-05-29T13:48:25.602Z,30
2019-05-29T13:49:27.846Z,31
2019-05-29T13:50:31.111Z,30
2019-05-29T13:51:33.382Z,31
2019-05-29T13:52:35.588Z,30
2019-05-29T13:53:37.788Z,30
2019-05-29T13:54:40.491Z,32
2019-05-29T13:55:43.239Z,32
2019-05-29T13:56:46.678Z,31
2019-05-29T13:57:49.262Z,29
2019-05-29T13:58:51.510Z,31
2019-05-29T13:59:54.399Z,32
2019-05-29T14:00:58.004Z,30
2019-05-29T14:02:08.608Z,30
2019-05-29T14:03:13.176Z,33
2019-05-29T14:04:15.410Z,32
2019-05-29T14:05:18.000Z,33
2019-05-29T14:06:20.756Z,33
2019-05-29T14:07:23.231Z,34
2019-05-29T14:08:25.820Z,33
2019-05-29T14:09:28.400Z,32
2019-05-29T14:10:30.882Z,34
2019-05-29T14:11:33.129Z,33
2019-05-29T14:12:35.625Z,31
2019-05-29T14:13:38.620Z,31
2019-05-29T14:14:41.546Z,31
2019-05-29T14:15:43.785Z,33
2019-05-29T14:16:47.120Z,32
2019-05-29T14:17:49.323Z,31
2019-05-29T14:18:52.823Z,31
2019-05-29T14:19:55.034Z,32
2019-05-29T14:20:57.242Z,32
2019-05-29T14:22:02.889Z,32
2019-05-29T14:23:10.116Z,32
2019-05-29T14:24:31.198Z,31
2019-05-29T14:25:33.668Z,31
2019-05-29T14:26:35.922Z,31
2019-05-29T14:27:38.861Z,29
2019-05-29T14:28:41.049Z,30
2019-05-29T14:29:43.993Z,30
2019-05-29T14:30:46.516Z,30
2019-05-29T14:31:48.755Z,31
2019-05-29T14:32:52.211Z,30
2019-05-29T14:33:54.469Z,30
2019-05-29T14:34:56.928Z,30
2019-05-29T14:35:59.064Z,32
2019-05-29T14:37:09.707Z,30
2019-05-29T14:38:16.009Z,32
2019-05-29T14:39:18.372Z,32
2019-05-29T14:40:20.849Z,32
2019-05-29T14:41:23.781Z,29
2019-05-29T14:42:26.003Z,29
2019-05-29T14:43:28.181Z,30
2019-05-29T14:44:30.687Z,30
2019-05-29T14:45:33.446Z,30
2019-05-29T14:46:35.614Z,31
2019-05-29T14:47:38.213Z,28
2019-05-29T14:48:41.831Z,28
2019-05-29T14:49:44.008Z,29
2019-05-29T14:50:46.207Z,29
2019-05-29T14:51:48.459Z,27
2019-05-29T14:52:50.697Z,27
2019-05-29T14:53:53.018Z,27
2019-05-29T14:54:55.599Z,28
2019-05-29T14:55:57.798Z,28
2019-05-29T14:57:01.085Z,30
2019-05-29T14:58:27.805Z,30
2019-05-29T14:59:30.421Z,29
2019-05-29T15:00:33.213Z,29
2019-05-29T15:01:35.875Z,30
2019-05-29T15:02:38.188Z,31
2019-05-29T15:03:40.368Z,31
2019-05-29T15:04:42.566Z,31
2019-05-29T15:05:45.371Z,30
2019-05-29T15:06:47.665Z,31
2019-05-29T15:07:50.195Z,28
2019-05-29T15:08:52.464Z,29
2019-05-29T15:09:54.669Z,31
2019-05-29T15:10:56.911Z,29
2019-05-29T15:11:59.136Z,29
2019-05-29T15:13:01.751Z,30
2019-05-29T15:14:06.080Z,27
2019-05-29T15:15:17.392Z,27
2019-05-29T15:16:19.897Z,28
2019-05-29T15:17:22.402Z,29
2019-05-29T15:18:24.625Z,28
2019-05-29T15:19:27.166Z,28
2019-05-29T15:20:29.342Z,27
2019-05-29T15:21:31.947Z,27
2019-05-29T15:22:34.728Z,28
2019-05-29T15:23:36.965Z,29
2019-05-29T15:24:39.835Z,29
2019-05-29T15:25:42.040Z,30
2019-05-29T15:26:44.186Z,29
2019-05-29T15:27:46.404Z,31
2019-05-29T15:28:48.654Z,30
2019-05-29T15:29:50.849Z,30
2019-05-29T15:30:53.304Z,30
2019-05-29T15:31:55.540Z,30
2019-05-29T15:32:58.445Z,31
2019-05-29T15:34:00.740Z,33
2019-05-29T15:35:02.966Z,33
2019-05-29T15:36:07.082Z,31
2019-05-29T15:37:19.212Z,31
2019-05-29T15:38:22.459Z,32
2019-05-29T15:39:24.646Z,32
2019-05-29T15:40:26.866Z,32
2019-05-29T15:41:29.112Z,31
2019-05-29T15:42:31.598Z,29
2019-05-29T15:43:34.188Z,31
2019-05-29T15:44:36.371Z,30
2019-05-29T15:45:39.171Z,29
2019-05-29T15:46:42.453Z,28
2019-05-29T15:47:45.048Z,29
2019-05-29T15:48:47.318Z,31
2019-05-29T15:49:49.468Z,31
2019-05-29T15:50:52.036Z,28
2019-05-29T15:51:54.670Z,29
2019-05-29T15:52:57.274Z,28
2019-05-29T15:53:59.768Z,29
2019-05-29T15:55:35.743Z,30
2019-05-29T15:56:38.200Z,29
2019-05-29T15:57:40.385Z,28
2019-05-29T15:58:43.186Z,27
2019-05-29T15:59:45.707Z,27
2019-05-29T16:00:48.528Z,28
2019-05-29T16:01:51.088Z,28
2019-05-29T16:02:55.046Z,28
2019-05-29T16:04:00.135Z,29
2019-05-29T16:05:02.726Z,30
2019-05-29T16:06:05.621Z,29
2019-05-29T16:07:11.722Z,29
2019-05-29T16:08:15.871Z,28
2019-05-29T16:09:19.887Z,27
2019-05-29T16:10:22.395Z,28
2019-05-29T16:11:26.898Z,28
2019-05-29T16:12:32.249Z,28
2019-05-29T16:13:34.431Z,30
2019-05-29T16:14:36.641Z,28
2019-05-29T16:15:38.837Z,29
2019-05-29T16:16:40.960Z,29
2019-05-29T16:17:43.372Z,28
2019-05-29T16:18:45.581Z,30
2019-05-29T16:19:47.720Z,28
2019-05-29T16:20:50.095Z,29
2019-05-29T16:21:52.569Z,29
2019-05-29T16:22:54.751Z,29
2019-05-29T16:23:56.853Z,29
2019-05-29T16:24:58.985Z,28
2019-05-29T16:26:01.880Z,28
2019-05-29T16:27:12.397Z,27
2019-05-29T16:28:15.771Z,27
2019-05-29T16:29:23.313Z,28
2019-05-29T16:30:30.023Z,28
2019-05-29T16:31:35.442Z,27
2019-05-29T16:32:45.524Z,28
2019-05-29T16:33:49.229Z,27
2019-05-29T16:34:51.647Z,28
2019-05-29T16:35:53.838Z,27
2019-05-29T16:36:55.967Z,27
2019-05-29T16:37:58.437Z,28
2019-05-29T16:39:00.651Z,29
2019-05-29T16:40:03.191Z,29
2019-05-29T16:41:05.437Z,30
2019-05-29T16:42:08.240Z,29
2019-05-29T16:43:12.043Z,31
2019-05-29T16:44:18.194Z,31
2019-05-29T16:45:22.750Z,32
2019-05-29T16:46:25.630Z,33
2019-05-29T16:47:27.754Z,32
2019-05-29T16:48:29.947Z,31
2019-05-29T16:49:32.324Z,32
2019-05-29T16:50:35.025Z,33
2019-05-29T16:51:37.205Z,34
2019-05-29T16:52:39.938Z,32
2019-05-29T16:53:42.794Z,31
2019-05-29T16:54:46.361Z,32
2019-05-29T16:55:55.316Z,32
2019-05-29T16:56:57.430Z,33
2019-05-29T16:57:59.949Z,34
2019-05-29T16:59:02.689Z,35
2019-05-29T17:00:05.101Z,32
2019-05-29T17:01:07.270Z,29
2019-05-29T17:02:09.865Z,28
2019-05-29T17:03:15.481Z,29
2019-05-29T17:04:21.436Z,31
2019-05-29T17:05:25.115Z,30
2019-05-29T17:06:27.595Z,32
2019-05-29T17:07:29.753Z,31
2019-05-29T17:08:32.143Z,32
2019-05-29T17:09:34.266Z,29
2019-05-29T17:10:36.713Z,30
2019-05-29T17:11:39.186Z,30
2019-05-29T17:12:41.310Z,30
2019-05-29T17:13:43.860Z,29
2019-05-29T17:14:45.980Z,29
2019-05-29T17:15:48.068Z,29
2019-05-29T17:16:50.914Z,29
2019-05-29T17:17:53.031Z,30
2019-05-29T17:18:55.251Z,29
2019-05-29T17:19:57.372Z,31
2019-05-29T17:20:59.565Z,30
2019-05-29T17:22:02.256Z,28
2019-05-29T17:23:04.424Z,28
2019-05-29T17:24:06.854Z,28
2019-05-29T17:25:09.063Z,28
2019-05-29T17:26:12.538Z,29
2019-05-29T17:27:16.520Z,29
2019-05-29T17:28:28.972Z,31
2019-05-29T17:29:31.352Z,29
2019-05-29T17:30:33.924Z,29
2019-05-29T17:31:36.020Z,32
2019-05-29T17:32:38.538Z,32
2019-05-29T17:33:41.005Z,33
2019-05-29T17:34:43.682Z,33
2019-05-29T17:35:45.847Z,34
2019-05-29T17:36:48.248Z,31
2019-05-29T17:37:50.373Z,34
2019-05-29T17:38:53.431Z,32
2019-05-29T17:39:56.368Z,29
2019-05-29T17:40:59.151Z,32
2019-05-29T17:42:01.455Z,30
2019-05-29T17:43:04.599Z,30
2019-05-29T17:44:08.234Z,28
2019-05-29T17:45:26.015Z,30
2019-05-29T17:46:29.396Z,30
2019-05-29T17:47:31.507Z,31
2019-05-29T17:48:33.677Z,32
2019-05-29T17:49:35.877Z,32
2019-05-29T17:50:38.065Z,32
2019-05-29T17:51:40.245Z,30
2019-05-29T17:52:43.426Z,31
2019-05-29T17:53:45.601Z,33
2019-05-29T17:54:47.700Z,34
2019-05-29T17:55:50.214Z,31
2019-05-29T17:56:53.478Z,30
2019-05-29T17:57:56.930Z,33
2019-05-29T17:58:59.531Z,33
2019-05-29T18:00:02.334Z,30
2019-05-29T18:01:05.380Z,32
2019-05-29T18:02:07.778Z,31
2019-05-29T18:03:10.010Z,32
2019-05-29T18:04:12.405Z,33
2019-05-29T18:05:18.567Z,32
2019-05-29T18:06:22.297Z,32
2019-05-29T18:07:26.916Z,33
2019-05-29T18:08:29.404Z,31
2019-05-29T18:09:31.705Z,32
2019-05-29T18:10:33.976Z,31
2019-05-29T18:11:36.503Z,31
2019-05-29T18:12:38.686Z,32
2019-05-29T18:13:41.000Z,31
2019-05-29T18:14:43.221Z,31
2019-05-29T18:15:45.510Z,31
2019-05-29T18:16:47.752Z,32
2019-05-29T18:17:50.249Z,32
2019-05-29T18:18:52.463Z,31
2019-05-29T18:19:54.671Z,32
2019-05-29T18:20:56.973Z,33
2019-05-29T18:21:59.203Z,33
2019-05-29T18:23:01.503Z,32
2019-05-29T18:24:03.720Z,34
2019-05-29T18:25:06.318Z,33
2019-05-29T18:26:08.616Z,33
2019-05-29T18:27:12.200Z,33
2019-05-29T18:28:14.497Z,34
2019-05-29T18:29:19.787Z,34
2019-05-29T18:30:24.522Z,34
2019-05-29T18:31:29.792Z,32
2019-05-29T18:32:32.531Z,35
2019-05-29T18:33:35.163Z,35
2019-05-29T18:34:38.022Z,35
2019-05-29T18:35:40.555Z,35
2019-05-29T18:36:42.775Z,35
2019-05-29T18:37:45.040Z,35
2019-05-29T18:38:47.234Z,36
2019-05-29T18:39:50.033Z,36
2019-05-29T18:40:52.299Z,35
2019-05-29T18:41:55.062Z,36
2019-05-29T18:42:57.325Z,36
2019-05-29T18:43:59.802Z,36
2019-05-29T18:45:03.903Z,37
2019-05-29T18:46:07.227Z,37
2019-05-29T18:47:09.707Z,37
2019-05-29T18:48:11.996Z,37
2019-05-29T18:49:16.088Z,38
2019-05-29T18:50:18.357Z,37
2019-05-29T18:51:22.555Z,38
2019-05-29T18:52:25.948Z,39
2019-05-29T18:53:29.516Z,39
2019-05-29T18:54:33.966Z,39
2019-05-29T18:55:36.196Z,39
2019-05-29T18:56:38.665Z,39
2019-05-29T18:57:41.231Z,39
2019-05-29T18:58:43.397Z,39
2019-05-29T18:59:45.954Z,39
2019-05-29T19:00:48.211Z,39
2019-05-29T19:01:50.406Z,39
2019-05-29T19:02:52.914Z,40
2019-05-29T19:03:56.205Z,40
2019-05-29T19:04:58.343Z,40
2019-05-29T19:06:00.678Z,40
2019-05-29T19:07:03.610Z,40
2019-05-29T19:08:07.085Z,41
2019-05-29T19:09:09.565Z,41
2019-05-29T19:10:12.057Z,42
2019-05-29T19:11:15.020Z,42
2019-05-29T19:12:17.466Z,42
2019-05-29T19:13:20.131Z,42
2019-05-29T19:14:26.187Z,42
2019-05-29T19:15:30.308Z,42
2019-05-29T19:16:33.767Z,42
2019-05-29T19:17:36.027Z,43
2019-05-29T19:18:38.201Z,43
2019-05-29T19:19:40.817Z,44
2019-05-29T19:20:43.720Z,44
2019-05-29T19:21:45.889Z,45
2019-05-29T19:22:48.145Z,45
2019-05-29T19:23:50.614Z,45
2019-05-29T19:24:52.877Z,45
2019-05-29T19:25:55.068Z,45
2019-05-29T19:26:57.575Z,45
2019-05-29T19:27:59.793Z,45
2019-05-29T19:29:02.395Z,45
2019-05-29T19:30:04.882Z,45
2019-05-29T19:31:07.438Z,46
2019-05-29T19:32:09.575Z,46
2019-05-29T19:33:12.448Z,46
2019-05-29T19:34:14.636Z,46
2019-05-29T19:35:16.873Z,46
2019-05-29T19:36:19.098Z,46
2019-05-29T19:37:21.319Z,46
2019-05-29T19:39:21.599Z,46
2019-05-29T19:40:26.193Z,47
2019-05-29T19:41:29.975Z,47
2019-05-29T19:42:34.883Z,48
2019-05-29T19:43:37.139Z,48
2019-05-29T19:44:39.317Z,49
2019-05-29T19:45:41.559Z,49
2019-05-29T19:46:55.364Z,49
2019-05-29T19:47:57.814Z,49
2019-05-29T19:49:00.098Z,49
2019-05-29T19:50:03.065Z,49
2019-05-29T19:51:05.290Z,49
2019-05-29T19:52:07.504Z,49
2019-05-29T19:53:09.761Z,49
2019-05-29T19:54:12.203Z,50
2019-05-29T19:55:14.479Z,50
2019-05-29T19:56:16.662Z,50
2019-05-29T19:57:18.832Z,50
2019-05-29T19:58:21.366Z,50
2019-05-29T19:59:23.554Z,50
2019-05-29T20:00:28.195Z,50
2019-05-29T20:01:41.144Z,50
2019-05-29T20:02:43.629Z,50
2019-05-29T20:03:46.088Z,51
2019-05-29T20:04:48.568Z,50
2019-05-29T20:05:51.098Z,50
2019-05-29T20:06:53.299Z,50
2019-05-29T20:07:55.518Z,50
2019-05-29T20:08:57.705Z,51
2019-05-29T20:09:59.878Z,51
2019-05-29T20:11:02.099Z,51
2019-05-29T20:12:04.656Z,51
2019-05-29T20:13:06.911Z,52
2019-05-29T20:14:09.490Z,52
2019-05-29T20:15:11.698Z,52
2019-05-29T20:16:13.968Z,52
2019-05-29T20:17:16.539Z,52
2019-05-29T20:18:18.762Z,52
2019-05-29T20:19:21.603Z,53
2019-05-29T20:20:23.813Z,53
2019-05-29T20:21:26.406Z,53
2019-05-29T20:22:30.922Z,53
2019-05-29T20:23:34.547Z,52
2019-05-29T20:24:39.424Z,52
2019-05-29T20:25:41.675Z,52
2019-05-29T20:26:43.884Z,53
2019-05-29T20:27:46.062Z,52
2019-05-29T20:28:48.246Z,53
2019-05-29T20:29:50.736Z,53
2019-05-29T20:30:53.373Z,53
2019-05-29T20:31:56.230Z,53
2019-05-29T20:32:58.455Z,53
2019-05-29T20:34:00.633Z,53
2019-05-29T20:35:03.796Z,53
2019-05-29T20:36:06.342Z,53
2019-05-29T20:37:09.098Z,53
2019-05-29T20:38:11.941Z,53
2019-05-29T20:39:14.411Z,53
2019-05-29T20:40:16.631Z,53
2019-05-29T20:41:18.836Z,53
2019-05-29T20:42:21.037Z,53
2019-05-29T20:43:23.293Z,54
2019-05-29T20:44:25.809Z,53
2019-05-29T20:45:29.143Z,54
2019-05-29T20:46:32.672Z,53
2019-05-29T20:47:35.996Z,53
2019-05-29T20:48:39.752Z,54
2019-05-29T20:49:47.747Z,54
2019-05-29T20:50:50.224Z,54
2019-05-29T20:51:52.396Z,55
2019-05-29T20:52:55.303Z,55
2019-05-29T20:53:57.780Z,55
2019-05-29T20:55:00.278Z,55
2019-05-29T20:56:02.475Z,55
2019-05-29T20:57:04.653Z,56
2019-05-29T20:58:26.016Z,56
2019-05-29T20:59:28.138Z,56
2019-05-29T21:00:32.446Z,56
2019-05-29T21:01:48.713Z,56
2019-05-29T21:02:50.897Z,55
2019-05-29T21:03:53.086Z,55
2019-05-29T21:04:55.261Z,55
2019-05-29T21:05:57.677Z,55
2019-05-29T21:06:59.839Z,55
2019-05-29T21:08:02.356Z,55
2019-05-29T21:09:04.892Z,55
2019-05-29T21:10:07.168Z,56
2019-05-29T21:11:09.892Z,55
2019-05-29T21:12:12.437Z,55
2019-05-29T21:13:14.942Z,56
2019-05-29T21:14:17.108Z,56
2019-05-29T21:15:19.372Z,56
2019-05-29T21:16:21.600Z,57
2019-05-29T21:17:23.784Z,57
2019-05-29T21:18:25.947Z,56
2019-05-29T21:19:28.139Z,56
2019-05-29T21:20:30.361Z,56
2019-05-29T21:21:34.106Z,55
2019-05-29T21:22:40.530Z,56
2019-05-29T21:23:44.638Z,56
2019-05-29T21:25:19.638Z,56
2019-05-29T21:26:22.146Z,56
2019-05-29T21:27:24.315Z,56
2019-05-29T21:28:51.205Z,56
2019-05-29T21:29:53.361Z,56
2019-05-29T21:30:55.957Z,56
2019-05-29T21:31:58.967Z,56
2019-05-29T21:33:01.604Z,55
2019-05-29T21:34:04.398Z,55
2019-05-29T21:35:06.926Z,56
2019-05-29T21:36:09.088Z,55
2019-05-29T21:37:11.289Z,56
2019-05-29T21:38:13.761Z,56
2019-05-29T21:39:15.926Z,55
2019-05-29T21:40:18.950Z,55
2019-05-29T21:41:21.197Z,55
2019-05-29T21:42:23.436Z,55
2019-05-29T21:43:26.307Z,55
2019-05-29T21:44:28.495Z,56
2019-05-29T21:45:30.713Z,56
2019-05-29T21:46:33.919Z,56
2019-05-29T21:47:39.275Z,55
2019-05-29T21:48:47.617Z,55
2019-05-29T21:49:50.199Z,56
2019-05-29T21:50:52.756Z,56
2019-05-29T21:51:56.344Z,56
2019-05-29T21:52:58.939Z,56
2019-05-29T21:54:01.265Z,56
2019-05-29T21:55:03.846Z,56
2019-05-29T21:56:06.078Z,56
2019-05-29T21:57:08.562Z,56
2019-05-29T21:58:10.833Z,55
2019-05-29T21:59:13.912Z,56
2019-05-29T22:00:16.374Z,56
2019-05-29T22:01:18.572Z,56
2019-05-29T22:02:20.731Z,56
2019-05-29T22:03:23.262Z,55
2019-05-29T22:04:25.405Z,55
2019-05-29T22:05:27.636Z,55
2019-05-29T22:06:29.807Z,55
2019-05-29T22:07:32.080Z,55
2019-05-29T22:08:34.558Z,56
2019-05-29T22:09:37.044Z,56
2019-05-29T22:10:39.364Z,55
2019-05-29T22:11:42.025Z,55
2019-05-29T22:12:44.563Z,55
2019-05-29T22:13:46.769Z,55
2019-05-29T22:14:49.098Z,55
2019-05-29T22:15:54.508Z,55
2019-05-29T22:16:59.519Z,55
2019-05-29T22:18:03.973Z,54
2019-05-29T22:19:06.159Z,54
2019-05-29T22:20:08.712Z,54
2019-05-29T22:21:11.099Z,54
2019-05-29T22:22:13.331Z,54
2019-05-29T22:23:15.431Z,54
2019-05-29T22:24:18.374Z,54
2019-05-29T22:25:20.735Z,54
2019-05-29T22:26:23.153Z,54
2019-05-29T22:27:25.316Z,54
2019-05-29T22:28:27.873Z,54
2019-05-29T22:29:30.070Z,54
2019-05-29T22:30:32.484Z,54
2019-05-29T22:31:37.628Z,54
2019-05-29T22:32:39.776Z,54
2019-05-29T22:33:41.920Z,54
2019-05-29T22:34:44.149Z,54
2019-05-29T22:35:46.472Z,54
2019-05-29T22:36:48.559Z,54
2019-05-29T22:37:53.635Z,53
2019-05-29T22:38:57.397Z,53
2019-05-29T22:40:01.678Z,53
2019-05-29T22:41:04.385Z,54
2019-05-29T22:42:06.480Z,54
2019-05-29T22:43:08.589Z,54
2019-05-29T22:44:10.679Z,54
2019-05-29T22:45:12.769Z,54
2019-05-29T22:46:15.150Z,54
2019-05-29T22:47:17.291Z,54
2019-05-29T22:48:19.788Z,54
2019-05-29T22:49:22.565Z,54
2019-05-29T22:50:24.671Z,54
2019-05-29T22:51:26.765Z,54
2019-05-29T22:52:28.944Z,54
2019-05-29T22:53:31.043Z,54
2019-05-29T22:54:33.531Z,54
2019-05-29T22:55:35.719Z,54
2019-05-29T22:56:37.956Z,54
2019-05-29T22:57:40.153Z,54
2019-05-29T22:58:42.989Z,53
2019-05-29T22:59:45.315Z,53
2019-05-29T23:00:48.644Z,53
2019-05-29T23:02:00.335Z,53
2019-05-29T23:03:09.192Z,53
2019-05-29T23:04:15.515Z,53
2019-05-29T23:05:18.810Z,53
2019-05-29T23:06:21.977Z,53
2019-05-29T23:07:25.680Z,52
2019-05-29T23:08:29.607Z,52
2019-05-29T23:09:34.824Z,53
2019-05-29T23:10:42.477Z,52
2019-05-29T23:11:52.142Z,52
2019-05-29T23:13:07.912Z,52
2019-05-29T23:14:15.049Z,52
2019-05-29T23:15:24.021Z,52
2019-05-29T23:16:32.625Z,52
2019-05-29T23:17:40.576Z,52
2019-05-29T23:18:45.183Z,52
2019-05-29T23:19:48.961Z,51
2019-05-29T23:20:52.759Z,51
2019-05-29T23:21:56.171Z,51
2019-05-29T23:23:00.644Z,51
2019-05-29T23:24:04.130Z,51
2019-05-29T23:25:06.708Z,51
2019-05-29T23:26:08.872Z,51
2019-05-29T23:27:11.125Z,52
2019-05-29T23:28:13.303Z,51
2019-05-29T23:29:15.475Z,52
2019-05-29T23:30:17.971Z,52
2019-05-29T23:31:20.132Z,52
2019-05-29T23:32:22.377Z,52
2019-05-29T23:33:24.823Z,52
2019-05-29T23:34:27.560Z,52
2019-05-29T23:35:30.055Z,52
2019-05-29T23:36:32.233Z,52
2019-05-29T23:37:34.885Z,52
2019-05-29T23:38:37.002Z,52
2019-05-29T23:39:39.538Z,51
2019-05-29T23:40:41.713Z,52
2019-05-29T23:41:43.933Z,52
2019-05-29T23:42:46.113Z,52
2019-05-29T23:43:48.240Z,52
2019-05-29T23:44:57.784Z,52
2019-05-29T23:46:02.215Z,51
2019-05-29T23:47:05.967Z,52
2019-05-29T23:48:08.124Z,52
2019-05-29T23:49:10.669Z,52
2019-05-29T23:50:13.183Z,52
2019-05-29T23:51:15.343Z,52
2019-05-29T23:52:17.591Z,52
2019-05-29T23:53:19.773Z,52
2019-05-29T23:54:22.004Z,52
2019-05-29T23:55:24.856Z,52
2019-05-29T23:56:27.037Z,52
2019-05-29T23:57:29.811Z,52
2019-05-29T23:58:31.972Z,53
2019-05-29T23:59:34.603Z,53
